Keewatin, MN

4:13 AM CDT on September 02, 2014 (GMT -0500)
Chisholm-hibbing | Change Station
CLOSE
Current Station
Airport
Location: Hibbing,
Elevation: 1352 ft
Nearby Weather Stations

Elev 1352 ft 47.39 °N, 92.84 °W | Updated 20 minutes ago

Fog
Fog
48 °F
Feels Like 48 °F
N
0
Wind Variable Wind from North

Today
High -- | Low -- °F
--% Chance of Precip.
Yesterday
High -- | Low -- °F
Precip. -- in
6:32 AM 7:50 PM
Waxing Crescent, 49% visible
Pressure 29.80 in
Visibility 0.2 miles
Clouds
Dew Point 46 °F
Humidity 93%
Rainfall 0.00 in
Snow Depth Not available.
UV Not available.
Pollen 3.00 out of 12
Air Quality Not available.
Flu Activity Not available.
METAR KHIB 020853Z AUTO 00000KT 1/4SM FG VV001 09/08 A2979 RMK AO2 SLP089 T00890078 53006

More Conditions Fewer Conditions

Pressure 29.80 in
Visibility 0.2 miles
Clouds
Dew Point 46 °F
Humidity 93%
Rainfall 0.00 in
Snow Depth Not available.
UV Not available.
Pollen 3.00 out of 12
Air Quality Not available.
Flu Activity Not available.
METAR KHIB 020853Z AUTO 00000KT 1/4SM FG VV001 09/08 A2979 RMK AO2 SLP089 T00890078 53006

More Conditions Fewer Conditions

10-Day Weather Forecast

Almanac

Astronomy

Sep. 02, 2014 Rise Set
Actual Time 6:32 AM CDT 7:50 PM CDT
Civil Twilight 6:00 AM CDT 8:22 PM CDT
Nautical Twilight 5:22 AM CDT 9:00 PM CDT
Astronomical Twilight 4:41 AM CDT 9:41 PM CDT
Moon 2:46 PM CDT No Moon Set
Length of Visible Light 14h 21m
Length of Day
13h 17m
Tomorrow will be 3m 19s shorter.
Waxing Crescent, 49% of the Moon is Illuminated
Today
Waxing Crescent
Sep 2
First Quarter
Sep 8
Full
Sep 15
Last Quarter
Sep 24
New

Today's Extremes

State Highs State Lows

Community

WunderPhotos

Upload Photos

1,749,587 photos uploaded!

WunderBlogs® & News

Nearby

Snow Depth

Station Depth Elevation
No new snow has been reported.

Earthquake Activity

City Distance Mag. Time & Date
No recent earthquake activity has been reported nearby.
Minimum magnitude displayed is 2.5.

Coastal Water Temperatures

Place Temperature
No Stations Reporting

Nearby Weather Stations